»·PEaware :: N329CC KSNA-KSMO

N329CC :: KSNA-KSMO

FLIGHT INFORMATION

Flight Status: Arrived
Operator: Privately registered:
United States
More flights under this callsign
Pilot: Skip B. (16331)
Aircraft: BEECH AIRCRAFT DEBONAIR BONANZA
(BE33)
More flights by this aircraft type
Origin: KSNA John Wayne-Orange Co
United States
Destination: KSMO Santa Monica Mun
United States
More flights between these airports :: More routes between these airports
Route: +SLI V8 POXKU V363 BAYJY V186 DARTS
File this flight plan on PilotEdge
Remarks: I-4
Altitude:
(Current/Filed)
6,000ft
Speed:
(Current/Filed)
150kts
Departed: 02-Dec-18 03:43 PM
Arrived: 02-Dec-18 04:13 PM
Distance/Time
Traveled:
35nm/0:30
Distance/Time
To Go:
Arrived

Flight Plot

Page will automatically refresh every two minutes.


Map Options




Map Legend


Flown Route
Filed Route
Departure Airport
Arrival Airport
Navaid (VOR, NDB)
Fix

Horizontal Profiles

Position Reports

Time Latitude Longitude Heading Altitude Ground
Speed
02-Dec-18 15:25 33.670664 -117.867996 215 60ft 0kts
02-Dec-18 15:26 33.670664 -117.867996 215 60ft 0kts
02-Dec-18 15:27 33.670664 -117.867996 215 60ft 0kts
02-Dec-18 15:28 33.670664 -117.867996 215 60ft 0kts
02-Dec-18 15:29 33.670664 -117.867996 215 60ft 0kts
02-Dec-18 15:30 33.670664 -117.867996 215 60ft 0kts
02-Dec-18 15:31 33.670664 -117.867996 215 60ft 0kts
02-Dec-18 15:32 33.670803 -117.868435 307 60ft 0kts
02-Dec-18 15:33 33.670803 -117.868435 307 60ft 0kts
02-Dec-18 15:34 33.670803 -117.868435 307 60ft 0kts
02-Dec-18 15:35 33.670803 -117.868435 307 60ft 0kts
02-Dec-18 15:36 33.670803 -117.868435 307 60ft 0kts
02-Dec-18 15:37 33.670803 -117.868435 307 60ft 0kts
02-Dec-18 15:38 33.670803 -117.868435 307 60ft 0kts
02-Dec-18 15:39 33.670803 -117.868435 307 60ft 0kts
02-Dec-18 15:40 33.671127 -117.868784 355 60ft 6kts
02-Dec-18 15:41 33.675014 -117.866514 29 60ft 20kts
02-Dec-18 15:42 33.679822 -117.863503 359 60ft 8kts
02-Dec-18 15:43 33.679958 -117.863605 296 60ft 0kts
02-Dec-18 15:44 33.679958 -117.863605 296 60ft 0kts
02-Dec-18 15:45 33.680042 -117.863800 296 60ft 6kts
02-Dec-18 15:46 33.667467 -117.875440 233 781ft 80kts
02-Dec-18 15:47 33.650980 -117.899943 234 1824ft 107kts
02-Dec-18 15:48 33.627992 -117.932188 232 2576ft 126kts
02-Dec-18 15:49 33.606299 -117.961144 232 3860ft 108kts
02-Dec-18 15:50 33.616316 -117.973893 15 5238ft 84kts
02-Dec-18 15:51 33.641913 -117.956470 18 5897ft 122kts
02-Dec-18 15:52 33.678196 -117.939149 10 6004ft 155kts
02-Dec-18 15:53 33.720409 -117.923460 8 6002ft 162kts
02-Dec-18 15:54 33.763944 -117.907903 9 6001ft 164kts
02-Dec-18 15:55 33.807641 -117.892804 9 5996ft 162kts
02-Dec-18 15:56 33.834275 -117.850965 66 5992ft 177kts
02-Dec-18 15:57 33.849933 -117.795337 41 5985ft 167kts
02-Dec-18 15:58 33.891684 -117.790758 356 5988ft 154kts
02-Dec-18 15:59 33.934335 -117.789943 359 5986ft 153kts
02-Dec-18 16:00 33.977032 -117.788595 357 5989ft 153kts
02-Dec-18 16:01 34.000305 -117.828054 319 5992ft 152kts
02-Dec-18 16:02 34.026040 -117.868678 305 5994ft 156kts
02-Dec-18 16:03 34.046109 -117.915939 281 5993ft 162kts
02-Dec-18 16:04 34.059863 -117.965797 295 6004ft 158kts
02-Dec-18 16:05 34.075841 -118.015256 295 6016ft 158kts
02-Dec-18 16:06 34.090597 -118.065104 281 6027ft 161kts
02-Dec-18 16:07 34.099742 -118.117131 281 5654ft 157kts
02-Dec-18 16:08 34.104631 -118.166922 281 5165ft 149kts
02-Dec-18 16:09 34.110019 -118.216562 281 4667ft 147kts
02-Dec-18 16:10 34.108365 -118.265197 264 4175ft 148kts
02-Dec-18 16:11 34.090899 -118.309876 242 3598ft 140kts
02-Dec-18 16:12 34.073548 -118.349695 247 2386ft 133kts
02-Dec-18 16:13 34.057944 -118.388651 244 1496ft 125kts
02-Dec-18 16:14 34.038735 -118.421831 230 725ft 108kts
02-Dec-18 16:15 34.021248 -118.444638 229 296ft 76kts
02-Dec-18 16:16 34.014368 -118.452433 139 173ft 4kts
02-Dec-18 16:17 34.014224 -118.452260 132 173ft 0kts
02-Dec-18 16:18 34.014224 -118.452260 132 173ft 0kts
02-Dec-18 16:19 34.015333 -118.450798 44 172ft 15kts
02-Dec-18 16:20 34.018164 -118.446905 48 173ft 7kts

Navigation Log

Ident Type
Flight plan parsing failed, navigation log unavailable